Time;durP1;ratioP1;P1;durP2;ratioP2;P2;SDS_P1;SDS_P2;PMS_P1;PMS_P2;Temp;Humidity;BMP_temperature;BMP_pressure;BME280_temperature;BME280_humidity;BME280_pressure;Samples;Min_cycle;Max_cycle;Signal;HPM_P1;HPM_P2
2022/09/22 00:00:17;;;;;;;6.07;5.35;;;26.40;99.90;;;;;;4142117;28;20030;-71
2022/09/22 00:02:29;;;;;;;10.30;5.65;;;26.40;99.90;;;;;;4141286;28;20112;-71
2022/09/22 00:04:38;;;;;;;6.65;5.20;;;26.40;99.90;;;;;;4141715;28;20085;-71
2022/09/22 00:07:06;;;;;;;9.93;5.75;;;26.40;99.90;;;;;;4140725;28;20172;-71
2022/09/22 00:09:20;;;;;;;5.57;5.00;;;26.50;99.90;;;;;;4142989;28;20515;-71
2022/09/22 00:11:46;;;;;;;10.88;5.80;;;26.40;99.90;;;;;;4141980;28;20053;-71
2022/09/22 00:14:06;;;;;;;9.77;5.88;;;26.60;99.90;;;;;;4109981;28;20074;-71
2022/09/22 00:16:18;;;;;;;7.70;5.95;;;26.60;99.90;;;;;;4141415;28;20157;-71
2022/09/22 00:18:29;;;;;;;8.77;6.68;;;26.70;99.90;;;;;;4140108;28;20054;-71
2022/09/22 00:20:39;;;;;;;9.35;6.63;;;26.70;99.90;;;;;;4155770;28;20112;-72
2022/09/22 00:22:49;;;;;;;9.43;6.35;;;26.60;99.90;;;;;;4156876;28;20112;-71
2022/09/22 00:24:58;;;;;;;10.27;7.03;;;26.70;99.90;;;;;;4141266;28;20104;-73
2022/09/22 00:27:16;;;;;;;8.95;6.93;;;26.60;99.90;;;;;;4140737;28;20070;-71
2022/09/22 00:29:27;;;;;;;8.85;7.20;;;26.90;99.90;;;;;;4141569;28;20043;-70
2022/09/22 00:31:33;;;;;;;7.93;6.57;;;26.90;99.90;;;;;;4142179;28;20671;-72
2022/09/22 00:33:58;;;;;;;12.30;7.10;;;27.00;99.90;;;;;;4143589;28;20052;-70
2022/09/22 00:36:10;;;;;;;9.02;6.93;;;27.10;99.90;;;;;;4144265;28;20045;-71
2022/09/22 00:38:23;;;;;;;8.95;7.25;;;27.30;99.90;;;;;;4143770;28;20045;-72
2022/09/22 00:40:36;;;;;;;13.38;7.43;;;27.10;99.90;;;;;;4144320;28;20120;-72
2022/09/22 00:43:19;;;;;;;10.05;6.68;;;27.20;99.90;;;;;;4143275;28;20038;-72
2022/09/22 00:45:31;;;;;;;9.77;6.55;;;27.10;99.90;;;;;;4142954;28;20529;-72
2022/09/22 00:47:42;;;;;;;9.00;6.88;;;27.20;99.90;;;;;;4175225;28;20045;-72
2022/09/22 00:50:13;;;;;;;7.82;6.65;;;27.10;99.90;;;;;;4160455;28;20041;-72
2022/09/22 00:52:46;;;;;;;7.73;6.47;;;27.20;99.90;;;;;;4143439;28;20467;-72
2022/09/22 00:55:06;;;;;;;9.50;6.50;;;27.20;99.90;;;;;;4163816;28;20554;-71
2022/09/22 00:57:25;;;;;;;8.48;6.25;;;27.20;99.90;;;;;;4145519;28;20065;-71
2022/09/22 00:59:39;;;;;;;9.77;6.03;;;27.20;99.90;;;;;;4159512;28;20056;-71
2022/09/22 01:01:49;;;;;;;7.97;6.90;;;27.10;99.90;;;;;;4158419;28;20119;-71
2022/09/22 01:03:55;;;;;;;13.18;7.28;;;27.20;99.90;;;;;;4142983;28;20060;-71
2022/09/22 01:06:02;;;;;;;10.75;7.25;;;27.10;99.90;;;;;;4158808;28;20050;-71
2022/09/22 01:08:17;;;;;;;10.27;6.70;;;27.10;99.90;;;;;;4175304;28;20115;-73
2022/09/22 01:10:25;;;;;;;9.32;5.95;;;27.00;99.90;;;;;;4158589;28;20232;-71
2022/09/22 01:12:32;;;;;;;8.07;5.97;;;27.10;99.90;;;;;;4159499;28;20055;-71
2022/09/22 01:15:06;;;;;;;8.05;6.35;;;27.20;99.90;;;;;;4144987;28;20053;-71
2022/09/22 01:17:32;;;;;;;12.40;6.25;;;27.30;99.90;;;;;;4158430;28;20420;-71
2022/09/22 01:20:02;;;;;;;7.22;6.40;;;27.40;99.90;;;;;;4130392;28;20066;-70
2022/09/22 01:22:27;;;;;;;8.20;6.43;;;27.30;99.90;;;;;;4094270;28;20086;-71
2022/09/22 01:24:47;;;;;;;10.48;6.57;;;27.10;99.90;;;;;;4124557;28;20672;-71
2022/09/22 01:27:12;;;;;;;8.73;6.90;;;27.20;99.90;;;;;;4125231;28;20687;-71
2022/09/22 01:29:42;;;;;;;8.05;6.47;;;27.20;99.90;;;;;;4139422;28;20049;-69
2022/09/22 01:31:54;;;;;;;12.93;6.43;;;27.10;99.90;;;;;;4145821;28;20100;-71
2022/09/22 01:34:15;;;;;;;7.65;6.32;;;27.10;99.90;;;;;;4146287;28;20041;-71
2022/09/22 01:36:28;;;;;;;7.93;6.78;;;27.00;99.90;;;;;;4129788;28;20137;-71
2022/09/22 01:38:46;;;;;;;8.10;6.75;;;27.00;99.90;;;;;;4145582;28;20054;-71
2022/09/22 01:40:58;;;;;;;7.43;6.28;;;27.00;99.90;;;;;;4147348;28;20084;-71
2022/09/22 01:43:12;;;;;;;7.75;6.93;;;26.90;99.90;;;;;;4146476;28;20053;-71
2022/09/22 01:45:34;;;;;;;7.32;6.63;;;27.10;99.90;;;;;;4146593;28;20092;-70
2022/09/22 01:48:01;;;;;;;7.78;6.55;;;27.20;99.90;;;;;;4192111;28;20745;-71
2022/09/22 01:50:15;;;;;;;8.98;6.88;;;27.30;99.90;;;;;;4177990;28;20052;-70
2022/09/22 01:52:30;;;;;;;7.47;6.55;;;27.30;99.90;;;;;;4191078;28;20101;-71
2022/09/22 01:54:48;;;;;;;8.52;6.70;;;27.30;99.90;;;;;;4146256;28;20049;-70
2022/09/22 01:57:04;;;;;;;9.13;7.25;;;27.40;99.90;;;;;;4147397;28;20054;-71
2022/09/22 01:59:11;;;;;;;8.63;7.28;;;27.30;99.90;;;;;;4147247;28;20053;-71
2022/09/22 02:01:32;;;;;;;8.18;6.95;;;27.40;99.90;;;;;;4147369;28;20050;-70
2022/09/22 02:03:57;;;;;;;9.60;7.45;;;27.50;99.90;;;;;;4148042;28;20154;-71
2022/09/22 02:06:18;;;;;;;10.18;8.02;;;27.60;99.90;;;;;;4147618;28;20137;-71
2022/09/22 02:08:39;;;;;;;8.95;7.80;;;27.60;99.90;;;;;;4145898;28;20108;-71
2022/09/22 02:10:51;;;;;;;9.00;7.45;;;27.70;99.90;;;;;;4147050;28;20066;-70
2022/09/22 02:13:04;;;;;;;11.25;7.97;;;27.70;99.90;;;;;;4147465;28;20132;-71
2022/09/22 02:15:58;;;;;;;8.05;7.25;;;27.80;99.90;;;;;;4146795;28;20065;-71
2022/09/22 02:17:46;;;;;;;10.82;7.30;;;27.70;99.90;;;;;;4153888;28;20054;-71
2022/09/22 02:20:07;;;;;;;13.25;8.25;;;27.80;99.90;;;;;;4162004;28;20508;-71
2022/09/22 02:22:15;;;;;;;8.45;7.25;;;27.70;99.90;;;;;;4129391;28;20069;-72
2022/09/22 02:24:30;;;;;;;10.05;7.18;;;27.70;99.90;;;;;;4131380;28;20047;-71
2022/09/22 02:26:39;;;;;;;9.43;7.65;;;27.70;99.90;;;;;;4131043;28;20051;-71
2022/09/22 02:28:44;;;;;;;9.55;7.90;;;27.70;99.90;;;;;;4169031;28;20499;-70
2022/09/22 02:30:53;;;;;;;10.30;7.93;;;27.90;99.90;;;;;;4177715;28;20593;-70
2022/09/22 02:33:21;;;;;;;11.02;7.97;;;28.00;99.90;;;;;;4178071;28;20061;-70
2022/09/22 02:35:29;;;;;;;9.85;8.55;;;27.90;99.90;;;;;;4161072;28;20057;-70
2022/09/22 02:37:44;;;;;;;11.77;8.40;;;27.80;99.90;;;;;;4177531;28;20041;-71
2022/09/22 02:40:09;;;;;;;14.75;8.88;;;27.80;99.90;;;;;;4177772;28;20049;-71
2022/09/22 02:42:32;;;;;;;10.23;7.57;;;27.90;99.90;;;;;;4160608;28;20049;-71
2022/09/22 02:44:55;;;;;;;8.27;7.30;;;28.00;99.90;;;;;;4148631;28;20493;-71
2022/09/22 02:47:03;;;;;;;9.27;7.80;;;28.00;99.90;;;;;;4194851;28;20060;-70
2022/09/22 02:49:27;;;;;;;8.43;7.38;;;28.10;99.90;;;;;;4162423;28;20099;-71
2022/09/22 02:51:33;;;;;;;12.10;7.63;;;28.20;99.90;;;;;;4162488;28;20209;-71
2022/09/22 02:53:39;;;;;;;9.43;7.82;;;28.10;99.90;;;;;;4161495;28;20072;-70
2022/09/22 02:55:49;;;;;;;13.45;8.73;;;28.20;99.90;;;;;;4129887;28;20051;-71
2022/09/22 02:58:01;;;;;;;10.20;8.02;;;28.20;99.90;;;;;;4146786;28;20061;-74
2022/09/22 03:00:08;;;;;;;9.82;8.38;;;28.20;99.90;;;;;;4152309;28;20065;-71
2022/09/22 03:02:31;;;;;;;9.77;8.73;;;28.30;99.90;;;;;;4131400;28;20744;-71
2022/09/22 03:04:38;;;;;;;9.23;8.32;;;28.40;99.90;;;;;;4145936;28;20496;-70
2022/09/22 03:06:45;;;;;;;9.85;8.10;;;28.40;99.90;;;;;;4145786;28;20046;-72
2022/09/22 03:08:55;;;;;;;9.18;8.13;;;28.30;99.90;;;;;;4114105;28;20070;-72
2022/09/22 03:11:01;;;;;;;9.77;8.55;;;28.40;99.90;;;;;;4145552;28;20449;-72
2022/09/22 03:13:06;;;;;;;10.18;8.63;;;28.50;99.90;;;;;;4145498;28;20061;-71
2022/09/22 03:15:22;;;;;;;8.82;7.93;;;28.60;99.90;;;;;;4142242;28;20054;-72
2022/09/22 03:17:33;;;;;;;8.82;7.93;;;29.00;99.90;;;;;;4144993;28;20068;-71
2022/09/22 03:19:37;;;;;;;9.73;8.73;;;29.10;99.90;;;;;;4145119;28;20049;-71
